Mesa, Colorado
Current Conditions -  °F | °C
As of 6:02 PM on Tuesday 21 Oct 2014 (Local Time) from KGJT Reporting Station
Thunderstorm Thunderstorm  
Wind Chill: 63°   Ceiling: Unl
Heat Index: 63°   Visibility: 10mi
Dew Point: 42°   Wind: 9mph
Humidity: 46%   Direction: 120°ESE
Pressure: 29.95"   Gusts: NA
Location:  39.17°N, 108.14°W
Report Text: KGJT 220002Z 12008KT 10SM TS SCT075 17/06 A2995 RMK AO2 LTG DSNT S AND SW TSB2356 TS S MOV NE OCNL LTGICCG T01720056
Loading
Personal Weather Stations






























Interactive Weather Map
Tropical Storm Tracking
New forecast layout! Learn more

10-Day Weather Forecast

Advertisements
Track Severe Weather on mobile